Terminal Aerodrome Forecast
Issued by NWS Duluth, MN

Home | Current Version | Previous Version | Text Only | Print | Product List | Glossary On
Versions: 1 2 3 4 5 6 7 8 9 10 11 12 13 14 15 16 17 18 19 20 21 22 23 24 25 26 27 28 29 30 31 32 33 34 35 36
000
FTUS43 KDLH 311700
TAFINL
TAF
KINL 311733Z 3118/0118 14012G23KT P6SM VCSH SCT015 BKN060
      TEMPO 3118/3121 -SHRA BKN015 OVC050
     FM312100 17010KT P6SM VCSH SCT020 BKN040
      TEMPO 3122/0101 6SM -TSRA BKN040CB
     FM010100 VRB02KT P6SM -SHRA OVC035
     FM010500 28003KT 4SM -DZ BR SCT007 OVC015
     FM010800 30004KT 2SM -DZ BR SCT004 OVC007
     FM011300 30006KT 4SM BR SCT007 BKN015
     FM011500 29008KT P6SM SCT015=

USA.gov is the U.S. government's official web portal to all federal, state and local government web resources and services.